createdAt,value
2022-09-09T00:03:01.445Z,2.97
2022-09-09T00:06:10.910Z,2.38
2022-09-09T00:09:17.624Z,2.85
2022-09-09T00:12:28.657Z,2.50
2022-09-09T00:15:38.310Z,3.10
2022-09-09T00:18:54.059Z,2.40
2022-09-09T00:22:08.861Z,2.30
2022-09-09T00:25:17.894Z,2.53
2022-09-09T00:28:22.686Z,2.33
2022-09-09T00:31:29.980Z,2.63
2022-09-09T00:34:35.149Z,2.25
2022-09-09T00:37:37.995Z,2.53
2022-09-09T00:40:47.413Z,2.20
2022-09-09T00:43:59.542Z,2.33
2022-09-09T00:47:14.043Z,2.40
2022-09-09T00:50:35.217Z,2.60
2022-09-09T00:53:43.529Z,2.33
2022-09-09T00:56:55.890Z,2.35
2022-09-09T01:00:06.539Z,2.50
2022-09-09T01:03:23.183Z,2.53
2022-09-09T01:06:33.488Z,1.98
2022-09-09T01:09:46.193Z,2.20
2022-09-09T01:12:49.657Z,2.22
2022-09-09T01:15:56.342Z,2.80
2022-09-09T01:19:03.400Z,2.30
2022-09-09T01:22:17.057Z,2.35
2022-09-09T01:25:31.161Z,2.25
2022-09-09T01:28:37.832Z,2.40
2022-09-09T01:31:46.329Z,2.77
2022-09-09T01:34:49.319Z,2.60
2022-09-09T01:37:52.867Z,2.90
2022-09-09T01:40:56.357Z,2.70
2022-09-09T01:44:00.401Z,2.35
2022-09-09T01:47:03.154Z,2.80
2022-09-09T01:50:06.559Z,2.87
2022-09-09T01:53:09.788Z,2.75
2022-09-09T01:56:24.336Z,2.92
2022-09-09T01:59:43.040Z,2.65
2022-09-09T02:02:54.530Z,3.27
2022-09-09T02:06:07.603Z,2.60
2022-09-09T02:09:13.159Z,3.63
2022-09-09T02:12:20.624Z,2.83
2022-09-09T02:15:28.119Z,3.05
2022-09-09T02:18:37.511Z,3.20
2022-09-09T02:21:41.889Z,3.63
2022-09-09T02:24:45.763Z,3.13
2022-09-09T02:27:51.861Z,2.88
2022-09-09T02:30:56.913Z,2.60
2022-09-09T02:34:04.237Z,2.60
2022-09-09T02:37:09.633Z,2.43
2022-09-09T02:40:15.354Z,2.53
2022-09-09T02:43:18.356Z,3.30
2022-09-09T02:46:38.576Z,2.60
2022-09-09T02:49:51.366Z,3.20
2022-09-09T02:53:05.107Z,2.40
2022-09-09T02:56:12.552Z,2.67
2022-09-09T02:59:15.546Z,2.72
2022-09-09T03:02:19.842Z,2.53
2022-09-09T03:05:23.546Z,2.73
2022-09-09T03:08:26.111Z,2.70
2022-09-09T03:11:29.398Z,2.72
2022-09-09T03:14:32.203Z,2.70
2022-09-09T03:17:36.585Z,2.67
2022-09-09T03:20:39.117Z,2.33
2022-09-09T03:23:41.993Z,2.23
2022-09-09T03:26:45.645Z,2.40
2022-09-09T03:29:51.522Z,2.30
2022-09-09T03:32:56.083Z,2.60
2022-09-09T03:35:59.527Z,2.50
2022-09-09T03:39:03.854Z,2.60
2022-09-09T03:42:06.969Z,2.58
2022-09-09T03:45:11.751Z,2.65
2022-09-09T03:48:16.100Z,2.40
2022-09-09T03:51:18.939Z,2.30
2022-09-09T03:54:21.510Z,2.40
2022-09-09T03:57:24.242Z,2.70
2022-09-09T04:00:27.843Z,2.40
2022-09-09T04:03:32.649Z,2.30
2022-09-09T04:06:35.247Z,2.50
2022-09-09T04:09:37.807Z,2.20
2022-09-09T04:12:47.665Z,2.28
2022-09-09T04:15:54.157Z,2.55
2022-09-09T04:18:59.133Z,2.60
2022-09-09T04:22:01.887Z,2.17
2022-09-09T04:25:05.012Z,2.20
2022-09-09T04:28:07.577Z,2.40
2022-09-09T04:31:12.645Z,1.90
2022-09-09T04:34:16.619Z,2.50
2022-09-09T04:37:21.434Z,2.60
2022-09-09T04:40:24.178Z,2.17
2022-09-09T04:43:34.360Z,2.22
2022-09-09T04:46:37.216Z,2.30
2022-09-09T04:49:42.174Z,2.40
2022-09-09T04:52:44.735Z,2.47
2022-09-09T04:55:47.461Z,2.37
2022-09-09T04:58:50.145Z,2.55
2022-09-09T05:01:53.053Z,2.38
2022-09-09T05:04:57.090Z,2.05
2022-09-09T05:08:03.686Z,2.30
2022-09-09T05:11:06.648Z,2.50
2022-09-09T05:14:09.377Z,2.40
2022-09-09T05:17:11.988Z,2.80
2022-09-09T05:20:17.544Z,2.70
2022-09-09T05:23:20.300Z,2.80
2022-09-09T05:26:25.146Z,2.50
2022-09-09T05:29:28.339Z,2.80
2022-09-09T05:32:35.297Z,2.80
2022-09-09T05:35:39.227Z,3.20
2022-09-09T05:38:43.116Z,2.97
2022-09-09T05:41:45.776Z,2.60
2022-09-09T05:44:49.214Z,2.90
2022-09-09T05:47:54.925Z,2.90
2022-09-09T05:50:59.172Z,2.40
2022-09-09T05:54:01.786Z,2.60
2022-09-09T05:57:04.975Z,2.67
2022-09-09T06:00:08.932Z,2.80
2022-09-09T06:03:13.142Z,2.67
2022-09-09T06:06:19.164Z,3.08
2022-09-09T06:09:22.062Z,3.10
2022-09-09T06:12:24.747Z,2.60
2022-09-09T06:15:28.175Z,3.15
2022-09-09T06:18:30.724Z,3.25
2022-09-09T06:21:38.043Z,3.00
2022-09-09T06:24:40.728Z,3.00
2022-09-09T06:27:43.628Z,2.97
2022-09-09T06:30:46.470Z,2.95
2022-09-09T06:33:50.623Z,2.75
2022-09-09T06:36:54.513Z,2.70
2022-09-09T06:39:59.452Z,2.57
2022-09-09T06:43:02.820Z,2.77
2022-09-09T06:46:09.209Z,2.72
2022-09-09T06:49:11.891Z,2.30
2022-09-09T06:52:15.889Z,2.42
2022-09-09T06:55:18.627Z,2.47
2022-09-09T06:58:21.383Z,2.63
2022-09-09T07:01:25.598Z,2.05
2022-09-09T07:04:28.487Z,2.00
2022-09-09T07:07:32.494Z,1.92
2022-09-09T07:10:35.882Z,2.20
2022-09-09T07:13:38.658Z,1.70
2022-09-09T07:16:41.793Z,1.73
2022-09-09T07:19:44.365Z,1.98
2022-09-09T07:22:48.387Z,1.90
2022-09-09T07:25:51.355Z,2.10
2022-09-09T07:28:54.847Z,1.80
2022-09-09T07:31:57.791Z,2.20
2022-09-09T07:35:01.294Z,1.73
2022-09-09T07:38:07.629Z,1.60
2022-09-09T07:41:13.586Z,1.90
2022-09-09T07:44:18.375Z,1.97
2022-09-09T07:47:21.231Z,1.90
2022-09-09T07:50:24.544Z,1.60
2022-09-09T07:53:31.684Z,1.70
2022-09-09T07:56:35.285Z,1.80
2022-09-09T07:59:38.018Z,1.80
2022-09-09T08:02:40.682Z,1.50
2022-09-09T08:05:44.223Z,1.90
2022-09-09T08:08:52.281Z,1.80
2022-09-09T08:11:55.128Z,1.92
2022-09-09T08:14:57.725Z,1.50
2022-09-09T08:18:00.993Z,1.55
2022-09-09T08:21:12.769Z,1.40
2022-09-09T08:24:17.002Z,1.55
2022-09-09T08:27:19.927Z,1.70
2022-09-09T08:30:22.658Z,1.70
2022-09-09T08:33:26.089Z,1.17
2022-09-09T08:36:30.826Z,1.30
2022-09-09T08:39:34.983Z,1.50
2022-09-09T08:42:45.224Z,1.38
2022-09-09T08:45:54.726Z,1.30
2022-09-09T08:49:02.207Z,1.40
2022-09-09T08:52:11.466Z,1.43
2022-09-09T08:55:29.382Z,1.38
2022-09-09T08:58:34.407Z,1.40
2022-09-09T09:01:53.035Z,1.25
2022-09-09T09:05:08.889Z,1.50
2022-09-09T09:08:26.676Z,1.30
2022-09-09T09:11:37.205Z,1.40
2022-09-09T09:14:42.187Z,2.00
2022-09-09T09:17:45.665Z,1.58
2022-09-09T09:20:59.744Z,1.65
2022-09-09T09:24:03.572Z,1.60
2022-09-09T09:27:15.790Z,1.55
2022-09-09T09:30:28.534Z,1.70
2022-09-09T09:33:41.499Z,1.73
2022-09-09T09:36:48.225Z,1.75
2022-09-09T09:40:06.530Z,1.60
2022-09-09T09:43:22.249Z,1.60
2022-09-09T09:46:28.277Z,1.45
2022-09-09T09:49:31.071Z,1.73
2022-09-09T09:52:35.887Z,1.60
2022-09-09T09:55:49.188Z,1.40
2022-09-09T09:58:54.444Z,1.50
2022-09-09T10:02:09.294Z,1.63
2022-09-09T10:05:16.981Z,1.55
2022-09-09T10:08:30.321Z,1.24
2022-09-09T10:11:44.578Z,1.40
2022-09-09T10:15:00.044Z,1.30
2022-09-09T10:18:15.958Z,1.30
2022-09-09T10:21:33.198Z,1.20
2022-09-09T10:25:20.686Z,1.30
2022-09-09T10:28:41.732Z,1.25
2022-09-09T10:31:57.775Z,1.10
2022-09-09T10:35:06.689Z,1.55
2022-09-09T10:38:18.634Z,1.27
2022-09-09T10:41:34.339Z,1.45
2022-09-09T10:44:57.944Z,1.30
2022-09-09T10:48:18.193Z,1.48
2022-09-09T10:51:30.416Z,2.03
2022-09-09T10:54:45.942Z,1.47
2022-09-09T10:57:50.769Z,1.35
2022-09-09T11:00:58.465Z,1.33
2022-09-09T11:04:08.079Z,1.55
2022-09-09T11:07:15.444Z,1.42
2022-09-09T11:10:26.302Z,1.17
2022-09-09T11:13:36.427Z,1.23
2022-09-09T11:16:44.380Z,1.00
2022-09-09T11:19:49.105Z,1.10
2022-09-09T11:22:57.413Z,1.40
2022-09-09T11:26:04.583Z,1.50
2022-09-09T11:29:28.060Z,1.40
2022-09-09T11:32:56.888Z,1.20
2022-09-09T11:36:15.834Z,0.90
2022-09-09T11:39:47.556Z,0.80
2022-09-09T11:42:51.585Z,1.10
2022-09-09T11:46:00.487Z,1.10
2022-09-09T11:49:07.044Z,0.90
2022-09-09T11:52:21.855Z,0.88
2022-09-09T11:55:28.082Z,1.10
2022-09-09T11:58:37.255Z,0.83
2022-09-09T12:01:43.765Z,1.10
2022-09-09T12:04:57.944Z,1.02
2022-09-09T12:08:04.493Z,1.00
2022-09-09T12:11:07.991Z,1.13
2022-09-09T12:14:22.194Z,0.77
2022-09-09T12:17:27.084Z,0.90
2022-09-09T12:20:59.085Z,1.00
2022-09-09T12:24:10.001Z,1.00
2022-09-09T12:27:21.041Z,0.70
2022-09-09T12:30:27.897Z,0.70
2022-09-09T12:33:37.265Z,0.80
2022-09-09T12:36:42.083Z,0.95
2022-09-09T12:39:49.384Z,1.00
2022-09-09T12:42:52.797Z,0.77
2022-09-09T12:45:59.885Z,0.80
2022-09-09T12:49:03.199Z,1.00
2022-09-09T12:52:10.470Z,0.80
2022-09-09T12:55:22.696Z,0.90
2022-09-09T12:58:26.187Z,0.73
2022-09-09T13:01:31.486Z,0.70
2022-09-09T13:04:34.125Z,0.90
2022-09-09T13:07:36.972Z,0.70
2022-09-09T13:10:56.340Z,0.80
2022-09-09T13:14:02.263Z,0.90
2022-09-09T13:17:06.805Z,0.90
2022-09-09T13:20:19.256Z,0.90
2022-09-09T13:23:23.261Z,0.80
2022-09-09T13:26:30.496Z,0.90
2022-09-09T13:29:34.328Z,0.90
2022-09-09T13:32:37.057Z,0.75
2022-09-09T13:35:48.741Z,0.90
2022-09-09T13:38:57.189Z,0.73
2022-09-09T13:42:01.216Z,0.80
2022-09-09T13:45:05.205Z,0.73
2022-09-09T13:48:12.948Z,1.10
2022-09-09T13:51:32.450Z,1.02
2022-09-09T13:54:35.161Z,0.95
2022-09-09T13:57:39.238Z,1.20
2022-09-09T14:00:41.847Z,1.03
2022-09-09T14:03:44.659Z,1.00
2022-09-09T14:06:48.491Z,1.17
2022-09-09T14:09:53.265Z,0.93
2022-09-09T14:12:57.170Z,0.93
2022-09-09T14:16:00.014Z,1.00
2022-09-09T14:19:02.630Z,1.00
2022-09-09T14:22:05.376Z,1.08
2022-09-09T14:25:09.244Z,0.88
2022-09-09T14:28:15.510Z,1.10
2022-09-09T14:31:18.740Z,0.80
2022-09-09T14:34:22.442Z,0.90
2022-09-09T14:37:25.043Z,1.27
2022-09-09T14:40:27.963Z,0.90
2022-09-09T14:43:33.485Z,0.70
2022-09-09T14:46:53.713Z,0.80
2022-09-09T14:49:56.878Z,0.80
2022-09-09T14:52:59.556Z,0.70
2022-09-09T14:56:06.986Z,1.00
2022-09-09T14:59:11.055Z,1.10
2022-09-09T15:02:15.161Z,0.90
2022-09-09T15:05:18.224Z,0.63
2022-09-09T15:08:20.804Z,0.70
2022-09-09T15:11:25.661Z,0.75
2022-09-09T15:14:29.572Z,0.90
2022-09-09T15:17:32.463Z,0.80
2022-09-09T15:20:40.069Z,0.90
2022-09-09T15:23:43.498Z,0.95
2022-09-09T15:26:46.074Z,0.80
2022-09-09T15:29:50.124Z,0.90
2022-09-09T15:32:53.943Z,0.93
2022-09-09T15:35:57.282Z,0.80
2022-09-09T15:39:00.566Z,0.90
2022-09-09T15:42:03.202Z,0.93
2022-09-09T15:45:09.677Z,0.73
2022-09-09T15:48:12.754Z,0.63
2022-09-09T15:51:40.105Z,0.80
2022-09-09T15:54:40.049Z,0.80
2022-09-09T15:57:42.607Z,0.85
2022-09-09T16:00:46.734Z,1.00
2022-09-09T16:03:51.115Z,0.97
2022-09-09T16:06:55.710Z,0.90
2022-09-09T16:09:58.316Z,0.95
2022-09-09T16:13:00.913Z,0.90
2022-09-09T16:16:06.389Z,0.90
2022-09-09T16:19:12.271Z,0.80
2022-09-09T16:22:16.230Z,1.00
2022-09-09T16:25:20.037Z,1.00
2022-09-09T16:28:23.219Z,2.70
2022-09-09T16:31:29.353Z,3.20
2022-09-09T16:34:32.355Z,3.50
2022-09-09T16:37:35.142Z,3.20
2022-09-09T16:40:38.226Z,2.95
2022-09-09T16:43:41.502Z,2.40
2022-09-09T16:46:46.339Z,4.18
2022-09-09T16:49:49.915Z,3.33
2022-09-09T16:52:53.342Z,2.70
2022-09-09T16:55:56.506Z,1.92
2022-09-09T16:59:01.103Z,1.60
2022-09-09T17:02:06.181Z,1.23
2022-09-09T17:05:10.135Z,1.33
2022-09-09T17:08:12.841Z,1.05
2022-09-09T17:11:16.537Z,1.30
2022-09-09T17:14:20.701Z,1.00
2022-09-09T17:17:31.987Z,1.40
2022-09-09T17:20:46.598Z,1.40
2022-09-09T17:23:50.705Z,1.30
2022-09-09T17:26:53.565Z,1.42
2022-09-09T17:29:56.123Z,1.20
2022-09-09T17:33:00.194Z,1.25
2022-09-09T17:36:07.726Z,0.93
2022-09-09T17:39:10.583Z,1.00
2022-09-09T17:42:13.194Z,1.10
2022-09-09T17:45:16.312Z,1.10
2022-09-09T17:48:20.378Z,1.30
2022-09-09T17:51:26.046Z,1.00
2022-09-09T17:54:28.804Z,0.90
2022-09-09T17:57:31.400Z,1.20
2022-09-09T18:00:33.957Z,0.90
2022-09-09T18:03:38.831Z,1.20
2022-09-09T18:06:49.298Z,1.12
2022-09-09T18:09:51.994Z,1.90
2022-09-09T18:12:54.716Z,1.70
2022-09-09T18:15:57.960Z,2.07
2022-09-09T18:19:03.511Z,1.97
2022-09-09T18:22:07.086Z,1.70
2022-09-09T18:25:09.656Z,2.00
2022-09-09T18:28:12.339Z,1.80
2022-09-09T18:31:17.638Z,1.70
2022-09-09T18:34:23.146Z,1.27
2022-09-09T18:37:26.043Z,1.50
2022-09-09T18:40:31.401Z,1.50
2022-09-09T18:43:34.197Z,1.60
2022-09-09T18:46:37.789Z,1.80
2022-09-09T18:49:41.893Z,1.90
2022-09-09T18:52:44.457Z,2.00
2022-09-09T18:55:47.165Z,1.92
2022-09-09T18:58:53.529Z,2.17
2022-09-09T19:01:56.890Z,2.27
2022-09-09T19:05:01.711Z,2.30
2022-09-09T19:08:04.298Z,1.90
2022-09-09T19:11:08.761Z,2.00
2022-09-09T19:14:14.424Z,1.88
2022-09-09T19:17:17.109Z,1.70
2022-09-09T19:20:23.729Z,1.90
2022-09-09T19:23:30.367Z,1.50
2022-09-09T19:26:35.191Z,2.15
2022-09-09T19:29:40.007Z,1.42
2022-09-09T19:32:53.200Z,1.47
2022-09-09T19:36:02.044Z,1.30
2022-09-09T19:39:05.992Z,1.30
2022-09-09T19:42:08.578Z,1.20
2022-09-09T19:45:11.346Z,1.35
2022-09-09T19:48:14.807Z,1.50
2022-09-09T19:51:20.894Z,1.30
2022-09-09T19:54:23.561Z,1.30
2022-09-09T19:57:30.232Z,1.20
2022-09-09T20:00:33.158Z,1.35
2022-09-09T20:03:37.314Z,1.50
2022-09-09T20:06:43.969Z,1.20
2022-09-09T20:09:46.633Z,1.27
2022-09-09T20:12:49.578Z,1.35
2022-09-09T20:15:58.637Z,1.27
2022-09-09T20:19:02.546Z,1.47
2022-09-09T20:22:07.064Z,1.27
2022-09-09T20:25:09.939Z,1.08
2022-09-09T20:28:12.464Z,1.00
2022-09-09T20:31:19.041Z,1.00
2022-09-09T20:34:23.008Z,1.10
2022-09-09T20:37:26.909Z,1.20
2022-09-09T20:40:33.286Z,1.20
2022-09-09T20:43:36.119Z,1.20
2022-09-09T20:46:40.971Z,1.23
2022-09-09T20:49:44.249Z,1.20
2022-09-09T20:52:48.237Z,1.40
2022-09-09T20:55:51.034Z,1.20
2022-09-09T20:58:53.733Z,1.70
2022-09-09T21:01:56.920Z,1.20
2022-09-09T21:05:01.403Z,1.43
2022-09-09T21:08:05.558Z,1.70
2022-09-09T21:11:08.478Z,1.30
2022-09-09T21:14:12.003Z,1.20
2022-09-09T21:17:14.692Z,1.30
2022-09-09T21:20:17.494Z,1.30
2022-09-09T21:23:21.889Z,1.53
2022-09-09T21:26:24.826Z,1.45
2022-09-09T21:29:27.531Z,1.23
2022-09-09T21:32:30.097Z,1.30
2022-09-09T21:35:36.606Z,1.50
2022-09-09T21:38:41.705Z,1.30
2022-09-09T21:41:44.468Z,1.13
2022-09-09T21:44:47.135Z,1.20
2022-09-09T21:47:51.158Z,1.10
2022-09-09T21:50:54.876Z,1.10
2022-09-09T21:53:58.963Z,1.30
2022-09-09T21:57:01.665Z,1.20
2022-09-09T22:00:08.765Z,1.30
2022-09-09T22:03:11.488Z,1.20
2022-09-09T22:06:16.659Z,1.40
2022-09-09T22:09:21.210Z,1.40
2022-09-09T22:12:24.111Z,1.42
2022-09-09T22:15:26.798Z,1.10
2022-09-09T22:18:30.042Z,1.00
2022-09-09T22:21:34.040Z,1.20
2022-09-09T22:24:38.500Z,1.10
2022-09-09T22:27:41.043Z,1.15
2022-09-09T22:30:43.871Z,1.50
2022-09-09T22:33:46.428Z,1.50
2022-09-09T22:36:50.041Z,1.55
2022-09-09T22:39:54.172Z,1.73
2022-09-09T22:42:56.944Z,1.60
2022-09-09T22:45:59.799Z,1.30
2022-09-09T22:49:03.254Z,1.33
2022-09-09T22:52:06.156Z,1.23
2022-09-09T22:55:10.804Z,1.00
2022-09-09T22:58:13.457Z,1.35
2022-09-09T23:01:18.141Z,1.30
2022-09-09T23:04:25.212Z,1.50
2022-09-09T23:07:27.865Z,1.43
2022-09-09T23:10:33.065Z,1.40
2022-09-09T23:13:37.184Z,1.40
2022-09-09T23:16:43.593Z,1.40
2022-09-09T23:19:47.648Z,1.20
2022-09-09T23:22:50.485Z,1.10
2022-09-09T23:25:54.548Z,1.20
2022-09-09T23:28:59.277Z,1.80
2022-09-09T23:32:02.826Z,1.40
2022-09-09T23:35:06.352Z,1.30
2022-09-09T23:38:10.368Z,1.23
2022-09-09T23:41:21.211Z,1.10
2022-09-09T23:44:24.038Z,1.60
2022-09-09T23:47:26.583Z,1.40
2022-09-09T23:50:29.255Z,1.50
2022-09-09T23:53:31.898Z,1.87
2022-09-09T23:56:38.144Z,1.55
2022-09-09T23:59:40.942Z,1.70
